Terminal Aerodrome Forecast
Issued by NWS

Home | Current Version | Previous Version | Text Only | Print | Product List | Glossary On
Versions: 1 2 3 4 5 6 7 8 9 10 11 12 13 14 15 16 17 18 19 20 21 22
756
FTAK31 PAJN 180907 AAA
TAFAKT
TAF AMD
PAKT 180907Z 1809/1906 15008KT 6SM -RA FEW025 SCT030 OVC040
      WS020/13035KT
     FM181200 14018G33KT 4SM -RA BR OVC020 WS020/13045KT
     FM181800 14012G20KT 4SM -RA BR BKN020 OVC030 WS020/13035KT
      AMD LTD TO CLD VIS AND WIND 1806/1815=

USA.gov is the U.S. government's official web portal to all federal, state and local government web resources and services.